sensor_id;sensor_type;location;lat;lon;timestamp;P1;durP1;ratioP1;P2;durP2;ratioP2
31680;SDS011;18281;51.364;9.566;2023-12-07T18:05:08;11.10;;;7.03;;
31680;SDS011;18281;51.364;9.566;2023-12-07T18:07:33;13.15;;;7.28;;
31680;SDS011;18281;51.364;9.566;2023-12-07T18:09:58;12.77;;;8.93;;
31680;SDS011;18281;51.364;9.566;2023-12-07T18:12:24;13.75;;;8.48;;
31680;SDS011;18281;51.364;9.566;2023-12-07T18:14:49;18.15;;;9.27;;
31680;SDS011;18281;51.364;9.566;2023-12-07T18:17:14;14.73;;;8.93;;
31680;SDS011;18281;51.364;9.566;2023-12-07T18:19:45;11.43;;;8.20;;
31680;SDS011;18281;51.364;9.566;2023-12-07T18:22:10;17.45;;;8.82;;
31680;SDS011;18281;51.364;9.566;2023-12-07T18:24:39;14.18;;;8.82;;
31680;SDS011;18281;51.364;9.566;2023-12-07T18:27:05;14.85;;;8.95;;
31680;SDS011;18281;51.364;9.566;2023-12-07T18:29:31;14.50;;;8.82;;
31680;SDS011;18281;51.364;9.566;2023-12-07T18:31:56;13.68;;;9.27;;
31680;SDS011;18281;51.364;9.566;2023-12-07T18:34:21;13.98;;;9.07;;
31680;SDS011;18281;51.364;9.566;2023-12-07T18:36:47;15.32;;;9.68;;
31680;SDS011;18281;51.364;9.566;2023-12-07T18:39:12;14.38;;;8.13;;
31680;SDS011;18281;51.364;9.566;2023-12-07T18:41:37;14.18;;;9.50;;
31680;SDS011;18281;51.364;9.566;2023-12-07T18:44:03;13.45;;;9.25;;
31680;SDS011;18281;51.364;9.566;2023-12-07T18:46:28;15.20;;;9.82;;
31680;SDS011;18281;51.364;9.566;2023-12-07T18:48:54;14.65;;;9.57;;
31680;SDS011;18281;51.364;9.566;2023-12-07T18:51:19;14.35;;;9.68;;
31680;SDS011;18281;51.364;9.566;2023-12-07T18:53:45;14.77;;;9.13;;
31680;SDS011;18281;51.364;9.566;2023-12-07T18:56:10;17.25;;;10.02;;
31680;SDS011;18281;51.364;9.566;2023-12-07T18:58:35;12.68;;;9.60;;
31680;SDS011;18281;51.364;9.566;2023-12-07T19:01:01;16.50;;;9.75;;
31680;SDS011;18281;51.364;9.566;2023-12-07T19:03:28;17.95;;;9.50;;
31680;SDS011;18281;51.364;9.566;2023-12-07T19:05:53;14.38;;;9.55;;
31680;SDS011;18281;51.364;9.566;2023-12-07T19:08:19;15.80;;;9.32;;
31680;SDS011;18281;51.364;9.566;2023-12-07T19:10:44;15.23;;;9.43;;
31680;SDS011;18281;51.364;9.566;2023-12-07T19:13:10;17.27;;;9.82;;
31680;SDS011;18281;51.364;9.566;2023-12-07T19:15:35;15.80;;;10.10;;
31680;SDS011;18281;51.364;9.566;2023-12-07T19:18:01;17.67;;;10.40;;
31680;SDS011;18281;51.364;9.566;2023-12-07T19:20:26;18.23;;;10.38;;
31680;SDS011;18281;51.364;9.566;2023-12-07T19:22:51;16.05;;;10.45;;
31680;SDS011;18281;51.364;9.566;2023-12-07T19:25:18;18.77;;;10.90;;
31680;SDS011;18281;51.364;9.566;2023-12-07T19:27:44;21.35;;;11.82;;
31680;SDS011;18281;51.364;9.566;2023-12-07T19:30:10;17.45;;;11.98;;
31680;SDS011;18281;51.364;9.566;2023-12-07T19:32:35;24.10;;;13.43;;
31680;SDS011;18281;51.364;9.566;2023-12-07T19:35:04;21.23;;;13.07;;
31680;SDS011;18281;51.364;9.566;2023-12-07T19:37:32;23.45;;;13.18;;
31680;SDS011;18281;51.364;9.566;2023-12-07T19:40:00;20.27;;;12.65;;
31680;SDS011;18281;51.364;9.566;2023-12-07T19:42:26;22.45;;;12.75;;
31680;SDS011;18281;51.364;9.566;2023-12-07T19:44:51;21.83;;;13.45;;
31680;SDS011;18281;51.364;9.566;2023-12-07T19:47:17;22.45;;;13.52;;
31680;SDS011;18281;51.364;9.566;2023-12-07T19:49:42;21.08;;;13.68;;
31680;SDS011;18281;51.364;9.566;2023-12-07T19:52:08;21.90;;;14.07;;
31680;SDS011;18281;51.364;9.566;2023-12-07T19:54:35;23.48;;;14.07;;
31680;SDS011;18281;51.364;9.566;2023-12-07T19:57:00;24.02;;;14.05;;
31680;SDS011;18281;51.364;9.566;2023-12-07T19:59:26;21.40;;;14.00;;
31680;SDS011;18281;51.364;9.566;2023-12-07T20:01:52;23.95;;;13.50;;
31680;SDS011;18281;51.364;9.566;2023-12-07T20:04:18;23.38;;;14.98;;
31680;SDS011;18281;51.364;9.566;2023-12-07T20:06:43;23.52;;;14.88;;
31680;SDS011;18281;51.364;9.566;2023-12-07T20:09:08;23.23;;;15.18;;
31680;SDS011;18281;51.364;9.566;2023-12-07T20:11:34;25.10;;;14.63;;
31680;SDS011;18281;51.364;9.566;2023-12-07T20:14:00;23.52;;;13.50;;
31680;SDS011;18281;51.364;9.566;2023-12-07T20:16:26;25.50;;;15.57;;
31680;SDS011;18281;51.364;9.566;2023-12-07T20:18:51;24.70;;;13.88;;
31680;SDS011;18281;51.364;9.566;2023-12-07T20:21:16;23.00;;;14.43;;
31680;SDS011;18281;51.364;9.566;2023-12-07T20:23:42;24.90;;;14.48;;
31680;SDS011;18281;51.364;9.566;2023-12-07T20:26:10;26.85;;;16.80;;
31680;SDS011;18281;51.364;9.566;2023-12-07T20:28:42;24.90;;;15.77;;
31680;SDS011;18281;51.364;9.566;2023-12-07T20:31:09;25.85;;;15.55;;
31680;SDS011;18281;51.364;9.566;2023-12-07T20:33:34;26.23;;;15.57;;
31680;SDS011;18281;51.364;9.566;2023-12-07T20:36:00;21.95;;;14.95;;
31680;SDS011;18281;51.364;9.566;2023-12-07T20:38:25;21.55;;;13.93;;
31680;SDS011;18281;51.364;9.566;2023-12-07T20:40:50;21.10;;;13.15;;
31680;SDS011;18281;51.364;9.566;2023-12-07T20:43:16;19.30;;;13.02;;
31680;SDS011;18281;51.364;9.566;2023-12-07T20:45:41;20.50;;;13.05;;
31680;SDS011;18281;51.364;9.566;2023-12-07T20:48:07;18.10;;;12.50;;
31680;SDS011;18281;51.364;9.566;2023-12-07T20:50:32;19.75;;;12.00;;
31680;SDS011;18281;51.364;9.566;2023-12-07T20:52:57;18.52;;;11.43;;
31680;SDS011;18281;51.364;9.566;2023-12-07T20:55:27;17.92;;;10.75;;
31680;SDS011;18281;51.364;9.566;2023-12-07T20:57:53;19.88;;;11.30;;
31680;SDS011;18281;51.364;9.566;2023-12-07T21:00:18;16.23;;;10.77;;
31680;SDS011;18281;51.364;9.566;2023-12-07T21:02:44;15.80;;;10.10;;
31680;SDS011;18281;51.364;9.566;2023-12-07T21:05:10;14.65;;;9.45;;
31680;SDS011;18281;51.364;9.566;2023-12-07T21:07:35;13.68;;;9.73;;
31680;SDS011;18281;51.364;9.566;2023-12-07T21:10:01;15.88;;;9.25;;
31680;SDS011;18281;51.364;9.566;2023-12-07T21:12:26;15.30;;;9.00;;
31680;SDS011;18281;51.364;9.566;2023-12-07T21:14:52;14.50;;;9.93;;
31680;SDS011;18281;51.364;9.566;2023-12-07T21:17:17;11.32;;;8.30;;
31680;SDS011;18281;51.364;9.566;2023-12-07T21:19:44;14.55;;;9.63;;
31680;SDS011;18281;51.364;9.566;2023-12-07T21:22:10;14.07;;;9.65;;
31680;SDS011;18281;51.364;9.566;2023-12-07T21:24:35;16.45;;;9.63;;
31680;SDS011;18281;51.364;9.566;2023-12-07T21:27:00;14.52;;;9.98;;
31680;SDS011;18281;51.364;9.566;2023-12-07T21:29:26;15.57;;;10.43;;
31680;SDS011;18281;51.364;9.566;2023-12-07T21:31:51;15.15;;;9.60;;
31680;SDS011;18281;51.364;9.566;2023-12-07T21:34:17;14.30;;;9.80;;
31680;SDS011;18281;51.364;9.566;2023-12-07T21:36:45;14.60;;;10.00;;
31680;SDS011;18281;51.364;9.566;2023-12-07T21:39:10;15.38;;;9.80;;
31680;SDS011;18281;51.364;9.566;2023-12-07T21:41:36;15.02;;;9.65;;
31680;SDS011;18281;51.364;9.566;2023-12-07T21:44:02;15.32;;;9.50;;
31680;SDS011;18281;51.364;9.566;2023-12-07T21:46:27;14.90;;;9.10;;
31680;SDS011;18281;51.364;9.566;2023-12-07T21:48:53;15.50;;;8.73;;
31680;SDS011;18281;51.364;9.566;2023-12-07T21:51:18;12.75;;;8.65;;
31680;SDS011;18281;51.364;9.566;2023-12-07T21:53:47;11.95;;;8.75;;
31680;SDS011;18281;51.364;9.566;2023-12-07T21:56:12;11.85;;;9.05;;
31680;SDS011;18281;51.364;9.566;2023-12-07T21:58:37;13.25;;;8.30;;
31680;SDS011;18281;51.364;9.566;2023-12-07T22:01:03;12.85;;;8.35;;
31680;SDS011;18281;51.364;9.566;2023-12-07T22:03:29;16.05;;;9.52;;
31680;SDS011;18281;51.364;9.566;2023-12-07T22:05:54;15.27;;;8.48;;
31680;SDS011;18281;51.364;9.566;2023-12-07T22:08:20;13.68;;;9.05;;
31680;SDS011;18281;51.364;9.566;2023-12-07T22:10:45;14.48;;;8.95;;
31680;SDS011;18281;51.364;9.566;2023-12-07T22:13:11;11.18;;;8.10;;
31680;SDS011;18281;51.364;9.566;2023-12-07T22:15:37;13.50;;;8.80;;
31680;SDS011;18281;51.364;9.566;2023-12-07T22:18:02;12.45;;;8.65;;
31680;SDS011;18281;51.364;9.566;2023-12-07T22:20:28;14.05;;;9.20;;
31680;SDS011;18281;51.364;9.566;2023-12-07T22:22:53;13.35;;;8.77;;
31680;SDS011;18281;51.364;9.566;2023-12-07T22:25:18;15.85;;;9.15;;
31680;SDS011;18281;51.364;9.566;2023-12-07T22:27:44;14.48;;;9.30;;
31680;SDS011;18281;51.364;9.566;2023-12-07T22:30:09;14.98;;;9.30;;
31680;SDS011;18281;51.364;9.566;2023-12-07T22:32:35;15.45;;;9.85;;
31680;SDS011;18281;51.364;9.566;2023-12-07T22:35:01;13.77;;;9.32;;
31680;SDS011;18281;51.364;9.566;2023-12-07T22:37:27;15.88;;;10.68;;
31680;SDS011;18281;51.364;9.566;2023-12-07T22:39:53;14.38;;;10.00;;
31680;SDS011;18281;51.364;9.566;2023-12-07T22:42:18;20.98;;;10.65;;
31680;SDS011;18281;51.364;9.566;2023-12-07T22:44:43;16.67;;;10.30;;
31680;SDS011;18281;51.364;9.566;2023-12-07T22:47:09;16.90;;;10.13;;
31680;SDS011;18281;51.364;9.566;2023-12-07T22:49:34;15.90;;;10.63;;
31680;SDS011;18281;51.364;9.566;2023-12-07T22:51:59;17.65;;;11.20;;
31680;SDS011;18281;51.364;9.566;2023-12-07T22:54:25;18.58;;;10.18;;
31680;SDS011;18281;51.364;9.566;2023-12-07T22:56:51;20.88;;;11.10;;
31680;SDS011;18281;51.364;9.566;2023-12-07T22:59:17;18.48;;;10.75;;
31680;SDS011;18281;51.364;9.566;2023-12-07T23:01:42;16.08;;;10.77;;
31680;SDS011;18281;51.364;9.566;2023-12-07T23:04:07;16.65;;;10.80;;
31680;SDS011;18281;51.364;9.566;2023-12-07T23:06:33;19.52;;;10.50;;
31680;SDS011;18281;51.364;9.566;2023-12-07T23:08:58;17.88;;;11.20;;
31680;SDS011;18281;51.364;9.566;2023-12-07T23:11:23;19.80;;;10.65;;
31680;SDS011;18281;51.364;9.566;2023-12-07T23:13:49;18.23;;;11.10;;
31680;SDS011;18281;51.364;9.566;2023-12-07T23:16:14;16.35;;;9.77;;
31680;SDS011;18281;51.364;9.566;2023-12-07T23:18:40;17.20;;;10.60;;
31680;SDS011;18281;51.364;9.566;2023-12-07T23:21:09;16.25;;;11.02;;
31680;SDS011;18281;51.364;9.566;2023-12-07T23:23:35;19.85;;;11.52;;
31680;SDS011;18281;51.364;9.566;2023-12-07T23:26:01;17.33;;;11.52;;
31680;SDS011;18281;51.364;9.566;2023-12-07T23:28:27;16.08;;;10.95;;
31680;SDS011;18281;51.364;9.566;2023-12-07T23:30:52;16.25;;;10.55;;
31680;SDS011;18281;51.364;9.566;2023-12-07T23:33:17;18.83;;;11.35;;
31680;SDS011;18281;51.364;9.566;2023-12-07T23:35:43;15.90;;;10.75;;
31680;SDS011;18281;51.364;9.566;2023-12-07T23:38:11;17.05;;;11.77;;
31680;SDS011;18281;51.364;9.566;2023-12-07T23:40:37;18.33;;;10.68;;
31680;SDS011;18281;51.364;9.566;2023-12-07T23:43:02;19.13;;;11.52;;
31680;SDS011;18281;51.364;9.566;2023-12-07T23:45:27;16.55;;;10.05;;
31680;SDS011;18281;51.364;9.566;2023-12-07T23:47:53;17.25;;;10.68;;
31680;SDS011;18281;51.364;9.566;2023-12-07T23:50:18;15.77;;;10.18;;
31680;SDS011;18281;51.364;9.566;2023-12-07T23:52:43;18.45;;;11.82;;
31680;SDS011;18281;51.364;9.566;2023-12-07T23:55:09;15.15;;;10.60;;
31680;SDS011;18281;51.364;9.566;2023-12-07T23:57:34;17.05;;;11.35;;
